sensor_id;sensor_type;location;lat;lon;timestamp;P1;durP1;ratioP1;P2;durP2;ratioP2
12445;SDS011;6287;50.984;7.022;2023-02-05T00:01:25;19.97;;;7.33;;
12445;SDS011;6287;50.984;7.022;2023-02-05T00:03:53;12.97;;;7.03;;
12445;SDS011;6287;50.984;7.022;2023-02-05T00:06:19;14.03;;;7.30;;
12445;SDS011;6287;50.984;7.022;2023-02-05T00:08:44;18.20;;;8.93;;
12445;SDS011;6287;50.984;7.022;2023-02-05T00:11:10;17.10;;;8.07;;
12445;SDS011;6287;50.984;7.022;2023-02-05T00:13:36;16.47;;;7.37;;
12445;SDS011;6287;50.984;7.022;2023-02-05T00:18:39;15.07;;;7.40;;
12445;SDS011;6287;50.984;7.022;2023-02-05T00:21:12;17.30;;;7.80;;
12445;SDS011;6287;50.984;7.022;2023-02-05T00:23:38;18.83;;;7.60;;
12445;SDS011;6287;50.984;7.022;2023-02-05T00:26:05;17.30;;;7.67;;
12445;SDS011;6287;50.984;7.022;2023-02-05T00:28:34;16.13;;;7.63;;
12445;SDS011;6287;50.984;7.022;2023-02-05T00:31:05;20.80;;;8.27;;
12445;SDS011;6287;50.984;7.022;2023-02-05T00:33:35;14.80;;;6.70;;
12445;SDS011;6287;50.984;7.022;2023-02-05T00:36:01;17.97;;;8.73;;
12445;SDS011;6287;50.984;7.022;2023-02-05T00:38:29;20.87;;;9.87;;
12445;SDS011;6287;50.984;7.022;2023-02-05T00:40:58;13.23;;;7.47;;
12445;SDS011;6287;50.984;7.022;2023-02-05T00:43:28;14.50;;;7.83;;
12445;SDS011;6287;50.984;7.022;2023-02-05T00:45:56;12.63;;;8.13;;
12445;SDS011;6287;50.984;7.022;2023-02-05T00:48:22;17.70;;;8.97;;
12445;SDS011;6287;50.984;7.022;2023-02-05T00:50:55;17.53;;;8.63;;
12445;SDS011;6287;50.984;7.022;2023-02-05T00:53:24;21.33;;;8.37;;
12445;SDS011;6287;50.984;7.022;2023-02-05T00:55:49;16.23;;;8.67;;
12445;SDS011;6287;50.984;7.022;2023-02-05T00:58:18;18.30;;;9.13;;
12445;SDS011;6287;50.984;7.022;2023-02-05T01:00:47;16.67;;;8.73;;
12445;SDS011;6287;50.984;7.022;2023-02-05T01:03:14;16.07;;;9.30;;
12445;SDS011;6287;50.984;7.022;2023-02-05T01:05:39;17.07;;;9.27;;
12445;SDS011;6287;50.984;7.022;2023-02-05T01:08:09;19.77;;;9.43;;
12445;SDS011;6287;50.984;7.022;2023-02-05T01:10:41;19.23;;;9.10;;
12445;SDS011;6287;50.984;7.022;2023-02-05T01:13:08;21.10;;;9.30;;
12445;SDS011;6287;50.984;7.022;2023-02-05T01:15:36;23.07;;;9.33;;
12445;SDS011;6287;50.984;7.022;2023-02-05T01:18:02;18.20;;;8.93;;
12445;SDS011;6287;50.984;7.022;2023-02-05T01:20:27;20.07;;;8.97;;
12445;SDS011;6287;50.984;7.022;2023-02-05T01:22:57;19.27;;;9.57;;
12445;SDS011;6287;50.984;7.022;2023-02-05T01:25:28;22.90;;;9.13;;
12445;SDS011;6287;50.984;7.022;2023-02-05T01:27:56;19.83;;;9.00;;
12445;SDS011;6287;50.984;7.022;2023-02-05T01:30:24;23.33;;;9.93;;
12445;SDS011;6287;50.984;7.022;2023-02-05T01:32:49;20.70;;;9.97;;
12445;SDS011;6287;50.984;7.022;2023-02-05T01:35:17;18.03;;;8.70;;
12445;SDS011;6287;50.984;7.022;2023-02-05T01:37:45;19.50;;;9.90;;
12445;SDS011;6287;50.984;7.022;2023-02-05T01:40:14;20.00;;;10.07;;
12445;SDS011;6287;50.984;7.022;2023-02-05T01:42:43;20.53;;;9.37;;
12445;SDS011;6287;50.984;7.022;2023-02-05T01:47:50;22.47;;;9.47;;
12445;SDS011;6287;50.984;7.022;2023-02-05T01:50:24;20.17;;;9.83;;
12445;SDS011;6287;50.984;7.022;2023-02-05T01:52:53;23.83;;;10.20;;
12445;SDS011;6287;50.984;7.022;2023-02-05T01:55:21;24.93;;;10.43;;
12445;SDS011;6287;50.984;7.022;2023-02-05T01:57:53;21.03;;;9.13;;
12445;SDS011;6287;50.984;7.022;2023-02-05T02:00:20;21.23;;;9.87;;
12445;SDS011;6287;50.984;7.022;2023-02-05T02:02:49;18.13;;;9.87;;
12445;SDS011;6287;50.984;7.022;2023-02-05T02:05:15;18.23;;;8.73;;
12445;SDS011;6287;50.984;7.022;2023-02-05T02:07:41;26.73;;;9.73;;
12445;SDS011;6287;50.984;7.022;2023-02-05T02:10:11;18.27;;;8.67;;
12445;SDS011;6287;50.984;7.022;2023-02-05T02:12:40;18.70;;;8.83;;
12445;SDS011;6287;50.984;7.022;2023-02-05T02:15:09;20.90;;;9.33;;
12445;SDS011;6287;50.984;7.022;2023-02-05T02:17:43;19.63;;;10.37;;
12445;SDS011;6287;50.984;7.022;2023-02-05T02:20:13;19.67;;;9.47;;
12445;SDS011;6287;50.984;7.022;2023-02-05T02:28:06;18.60;;;9.90;;
12445;SDS011;6287;50.984;7.022;2023-02-05T02:36:08;21.40;;;10.77;;
12445;SDS011;6287;50.984;7.022;2023-02-05T02:39:07;22.53;;;9.80;;
12445;SDS011;6287;50.984;7.022;2023-02-05T02:41:40;20.80;;;9.43;;
12445;SDS011;6287;50.984;7.022;2023-02-05T02:44:11;23.63;;;10.20;;
12445;SDS011;6287;50.984;7.022;2023-02-05T02:46:55;23.63;;;10.33;;
12445;SDS011;6287;50.984;7.022;2023-02-05T02:49:29;18.73;;;9.10;;
12445;SDS011;6287;50.984;7.022;2023-02-05T02:52:05;17.47;;;9.27;;
12445;SDS011;6287;50.984;7.022;2023-02-05T02:54:35;21.47;;;10.27;;
12445;SDS011;6287;50.984;7.022;2023-02-05T02:57:03;21.27;;;10.10;;
12445;SDS011;6287;50.984;7.022;2023-02-05T02:59:34;19.70;;;8.93;;
12445;SDS011;6287;50.984;7.022;2023-02-05T03:02:03;23.37;;;10.00;;
12445;SDS011;6287;50.984;7.022;2023-02-05T03:07:09;21.90;;;9.93;;
12445;SDS011;6287;50.984;7.022;2023-02-05T03:09:54;21.83;;;9.50;;
12445;SDS011;6287;50.984;7.022;2023-02-05T03:12:38;17.47;;;8.30;;
12445;SDS011;6287;50.984;7.022;2023-02-05T03:15:08;16.77;;;8.80;;
12445;SDS011;6287;50.984;7.022;2023-02-05T03:17:35;21.23;;;9.23;;
12445;SDS011;6287;50.984;7.022;2023-02-05T03:20:05;20.90;;;10.17;;
12445;SDS011;6287;50.984;7.022;2023-02-05T03:22:35;23.33;;;9.37;;
12445;SDS011;6287;50.984;7.022;2023-02-05T03:25:01;17.60;;;8.90;;
12445;SDS011;6287;50.984;7.022;2023-02-05T03:27:30;17.40;;;9.43;;
12445;SDS011;6287;50.984;7.022;2023-02-05T03:29:57;18.40;;;9.67;;
12445;SDS011;6287;50.984;7.022;2023-02-05T03:40:42;14.57;;;8.97;;
12445;SDS011;6287;50.984;7.022;2023-02-05T03:59:54;20.20;;;9.47;;
12445;SDS011;6287;50.984;7.022;2023-02-05T04:02:25;18.30;;;9.17;;
12445;SDS011;6287;50.984;7.022;2023-02-05T04:04:54;18.67;;;9.47;;
12445;SDS011;6287;50.984;7.022;2023-02-05T04:07:19;18.57;;;9.73;;
12445;SDS011;6287;50.984;7.022;2023-02-05T04:09:50;21.67;;;9.47;;
12445;SDS011;6287;50.984;7.022;2023-02-05T04:12:15;15.43;;;9.20;;
12445;SDS011;6287;50.984;7.022;2023-02-05T04:14:41;19.37;;;9.37;;
12445;SDS011;6287;50.984;7.022;2023-02-05T04:17:08;18.10;;;8.87;;
12445;SDS011;6287;50.984;7.022;2023-02-05T04:19:35;21.30;;;9.00;;
12445;SDS011;6287;50.984;7.022;2023-02-05T04:22:01;18.87;;;9.33;;
12445;SDS011;6287;50.984;7.022;2023-02-05T04:24:29;14.63;;;8.93;;
12445;SDS011;6287;50.984;7.022;2023-02-05T04:26:54;17.57;;;9.33;;
12445;SDS011;6287;50.984;7.022;2023-02-05T04:29:24;19.57;;;8.83;;
12445;SDS011;6287;50.984;7.022;2023-02-05T04:31:50;22.93;;;9.67;;
12445;SDS011;6287;50.984;7.022;2023-02-05T04:34:18;20.67;;;9.27;;
12445;SDS011;6287;50.984;7.022;2023-02-05T04:36:44;21.20;;;9.13;;
12445;SDS011;6287;50.984;7.022;2023-02-05T04:39:12;20.83;;;9.10;;
12445;SDS011;6287;50.984;7.022;2023-02-05T04:41:43;18.43;;;9.57;;
12445;SDS011;6287;50.984;7.022;2023-02-05T04:44:08;20.17;;;9.20;;
12445;SDS011;6287;50.984;7.022;2023-02-05T04:46:34;16.27;;;8.87;;
12445;SDS011;6287;50.984;7.022;2023-02-05T04:49:02;19.23;;;9.03;;
12445;SDS011;6287;50.984;7.022;2023-02-05T04:51:28;17.27;;;8.70;;
12445;SDS011;6287;50.984;7.022;2023-02-05T04:53:54;15.40;;;8.87;;
12445;SDS011;6287;50.984;7.022;2023-02-05T04:56:19;17.77;;;9.10;;
12445;SDS011;6287;50.984;7.022;2023-02-05T04:58:47;20.80;;;10.03;;
12445;SDS011;6287;50.984;7.022;2023-02-05T05:01:16;18.07;;;8.87;;
12445;SDS011;6287;50.984;7.022;2023-02-05T05:03:47;20.23;;;9.03;;
12445;SDS011;6287;50.984;7.022;2023-02-05T05:06:14;17.97;;;8.97;;
12445;SDS011;6287;50.984;7.022;2023-02-05T05:08:43;23.13;;;8.73;;
12445;SDS011;6287;50.984;7.022;2023-02-05T05:11:13;23.07;;;9.17;;
12445;SDS011;6287;50.984;7.022;2023-02-05T05:13:42;18.87;;;8.50;;
12445;SDS011;6287;50.984;7.022;2023-02-05T05:16:08;19.13;;;8.87;;
12445;SDS011;6287;50.984;7.022;2023-02-05T05:18:37;15.50;;;8.10;;
12445;SDS011;6287;50.984;7.022;2023-02-05T05:21:05;17.87;;;9.00;;
12445;SDS011;6287;50.984;7.022;2023-02-05T05:23:34;17.43;;;8.83;;
12445;SDS011;6287;50.984;7.022;2023-02-05T05:26:06;15.07;;;7.87;;
12445;SDS011;6287;50.984;7.022;2023-02-05T05:28:33;18.30;;;8.80;;
12445;SDS011;6287;50.984;7.022;2023-02-05T05:30:59;15.73;;;8.93;;
12445;SDS011;6287;50.984;7.022;2023-02-05T05:33:33;21.27;;;9.10;;
12445;SDS011;6287;50.984;7.022;2023-02-05T05:36:06;17.57;;;8.40;;
12445;SDS011;6287;50.984;7.022;2023-02-05T05:38:32;17.60;;;9.20;;
12445;SDS011;6287;50.984;7.022;2023-02-05T05:40:58;15.33;;;8.17;;
12445;SDS011;6287;50.984;7.022;2023-02-05T05:43:43;15.40;;;8.47;;
12445;SDS011;6287;50.984;7.022;2023-02-05T05:46:16;22.13;;;8.87;;
12445;SDS011;6287;50.984;7.022;2023-02-05T05:48:51;18.53;;;8.63;;
12445;SDS011;6287;50.984;7.022;2023-02-05T05:51:21;19.50;;;8.93;;
12445;SDS011;6287;50.984;7.022;2023-02-05T05:53:48;18.03;;;8.57;;
12445;SDS011;6287;50.984;7.022;2023-02-05T05:56:15;18.70;;;8.97;;
12445;SDS011;6287;50.984;7.022;2023-02-05T05:58:41;18.87;;;8.30;;
12445;SDS011;6287;50.984;7.022;2023-02-05T06:01:08;23.83;;;9.27;;
12445;SDS011;6287;50.984;7.022;2023-02-05T06:03:34;20.03;;;8.77;;
12445;SDS011;6287;50.984;7.022;2023-02-05T06:06:00;15.43;;;8.70;;
12445;SDS011;6287;50.984;7.022;2023-02-05T06:08:27;17.80;;;8.40;;
12445;SDS011;6287;50.984;7.022;2023-02-05T06:10:53;20.53;;;9.10;;
12445;SDS011;6287;50.984;7.022;2023-02-05T06:13:23;16.47;;;8.17;;
12445;SDS011;6287;50.984;7.022;2023-02-05T06:15:52;16.77;;;8.37;;
12445;SDS011;6287;50.984;7.022;2023-02-05T06:18:21;15.37;;;8.53;;
12445;SDS011;6287;50.984;7.022;2023-02-05T06:20:47;15.67;;;7.87;;
12445;SDS011;6287;50.984;7.022;2023-02-05T06:23:15;16.83;;;7.90;;
12445;SDS011;6287;50.984;7.022;2023-02-05T06:25:43;19.60;;;8.80;;
12445;SDS011;6287;50.984;7.022;2023-02-05T06:28:09;14.70;;;8.73;;
12445;SDS011;6287;50.984;7.022;2023-02-05T06:30:34;18.20;;;8.77;;
12445;SDS011;6287;50.984;7.022;2023-02-05T06:33:01;19.40;;;8.10;;
12445;SDS011;6287;50.984;7.022;2023-02-05T06:35:29;19.33;;;9.33;;
12445;SDS011;6287;50.984;7.022;2023-02-05T06:37:55;19.97;;;8.90;;
12445;SDS011;6287;50.984;7.022;2023-02-05T06:40:20;13.70;;;7.80;;
12445;SDS011;6287;50.984;7.022;2023-02-05T06:42:52;17.77;;;8.87;;
12445;SDS011;6287;50.984;7.022;2023-02-05T06:45:20;18.20;;;7.90;;
12445;SDS011;6287;50.984;7.022;2023-02-05T06:47:46;15.30;;;8.43;;
12445;SDS011;6287;50.984;7.022;2023-02-05T06:50:12;21.13;;;9.27;;
12445;SDS011;6287;50.984;7.022;2023-02-05T06:52:42;20.00;;;9.00;;
12445;SDS011;6287;50.984;7.022;2023-02-05T06:55:08;22.03;;;9.80;;
12445;SDS011;6287;50.984;7.022;2023-02-05T06:57:33;20.23;;;9.90;;
12445;SDS011;6287;50.984;7.022;2023-02-05T06:59:59;24.23;;;10.47;;
12445;SDS011;6287;50.984;7.022;2023-02-05T07:02:24;25.30;;;10.83;;
12445;SDS011;6287;50.984;7.022;2023-02-05T07:04:53;27.27;;;11.10;;
12445;SDS011;6287;50.984;7.022;2023-02-05T07:07:21;23.43;;;10.33;;
12445;SDS011;6287;50.984;7.022;2023-02-05T07:09:46;23.40;;;10.63;;
12445;SDS011;6287;50.984;7.022;2023-02-05T07:12:14;28.00;;;12.47;;
12445;SDS011;6287;50.984;7.022;2023-02-05T07:14:40;29.33;;;12.20;;
12445;SDS011;6287;50.984;7.022;2023-02-05T07:17:09;28.53;;;12.37;;
12445;SDS011;6287;50.984;7.022;2023-02-05T07:19:35;33.23;;;12.77;;
12445;SDS011;6287;50.984;7.022;2023-02-05T07:22:01;32.93;;;12.53;;
12445;SDS011;6287;50.984;7.022;2023-02-05T07:24:27;27.27;;;11.70;;
12445;SDS011;6287;50.984;7.022;2023-02-05T07:26:53;32.20;;;12.87;;
12445;SDS011;6287;50.984;7.022;2023-02-05T07:29:21;33.13;;;14.13;;
12445;SDS011;6287;50.984;7.022;2023-02-05T07:31:49;28.37;;;13.43;;
12445;SDS011;6287;50.984;7.022;2023-02-05T07:34:16;31.13;;;14.33;;
12445;SDS011;6287;50.984;7.022;2023-02-05T07:36:44;29.90;;;12.40;;
12445;SDS011;6287;50.984;7.022;2023-02-05T07:39:11;31.90;;;14.70;;
12445;SDS011;6287;50.984;7.022;2023-02-05T07:41:42;33.77;;;13.53;;
12445;SDS011;6287;50.984;7.022;2023-02-05T07:44:10;26.43;;;12.57;;
12445;SDS011;6287;50.984;7.022;2023-02-05T07:46:36;26.87;;;12.43;;
12445;SDS011;6287;50.984;7.022;2023-02-05T07:49:02;26.40;;;11.40;;
12445;SDS011;6287;50.984;7.022;2023-02-05T07:51:30;25.83;;;13.27;;
12445;SDS011;6287;50.984;7.022;2023-02-05T07:53:58;26.27;;;11.57;;
12445;SDS011;6287;50.984;7.022;2023-02-05T07:56:26;24.40;;;11.63;;
12445;SDS011;6287;50.984;7.022;2023-02-05T07:58:51;25.47;;;12.63;;
12445;SDS011;6287;50.984;7.022;2023-02-05T08:01:17;26.63;;;11.20;;
12445;SDS011;6287;50.984;7.022;2023-02-05T08:03:45;24.23;;;12.10;;
12445;SDS011;6287;50.984;7.022;2023-02-05T08:06:12;20.80;;;11.33;;
12445;SDS011;6287;50.984;7.022;2023-02-05T08:08:39;22.33;;;10.93;;
12445;SDS011;6287;50.984;7.022;2023-02-05T08:11:05;24.87;;;11.57;;
12445;SDS011;6287;50.984;7.022;2023-02-05T08:13:31;24.77;;;11.90;;
12445;SDS011;6287;50.984;7.022;2023-02-05T08:16:03;22.87;;;10.77;;
12445;SDS011;6287;50.984;7.022;2023-02-05T08:18:35;25.13;;;11.37;;
12445;SDS011;6287;50.984;7.022;2023-02-05T08:21:01;22.87;;;11.90;;
12445;SDS011;6287;50.984;7.022;2023-02-05T08:23:27;23.20;;;10.63;;
12445;SDS011;6287;50.984;7.022;2023-02-05T08:25:54;24.67;;;12.10;;
12445;SDS011;6287;50.984;7.022;2023-02-05T08:28:23;24.40;;;12.77;;
12445;SDS011;6287;50.984;7.022;2023-02-05T08:30:54;23.07;;;11.20;;
12445;SDS011;6287;50.984;7.022;2023-02-05T08:33:20;17.43;;;9.97;;
12445;SDS011;6287;50.984;7.022;2023-02-05T08:35:50;21.70;;;9.60;;
12445;SDS011;6287;50.984;7.022;2023-02-05T08:38:17;17.47;;;10.23;;
12445;SDS011;6287;50.984;7.022;2023-02-05T08:40:48;21.70;;;10.90;;
12445;SDS011;6287;50.984;7.022;2023-02-05T08:43:13;19.70;;;10.17;;
12445;SDS011;6287;50.984;7.022;2023-02-05T08:45:39;18.33;;;11.03;;
12445;SDS011;6287;50.984;7.022;2023-02-05T08:48:08;19.17;;;9.90;;
12445;SDS011;6287;50.984;7.022;2023-02-05T08:50:36;20.87;;;10.03;;
12445;SDS011;6287;50.984;7.022;2023-02-05T08:53:04;19.53;;;10.23;;
12445;SDS011;6287;50.984;7.022;2023-02-05T08:55:31;21.93;;;10.57;;
12445;SDS011;6287;50.984;7.022;2023-02-05T08:57:57;20.30;;;10.70;;
12445;SDS011;6287;50.984;7.022;2023-02-05T09:00:23;23.80;;;11.73;;
12445;SDS011;6287;50.984;7.022;2023-02-05T09:02:48;22.43;;;11.07;;
12445;SDS011;6287;50.984;7.022;2023-02-05T09:05:16;18.40;;;10.00;;
12445;SDS011;6287;50.984;7.022;2023-02-05T09:07:42;16.53;;;9.57;;
12445;SDS011;6287;50.984;7.022;2023-02-05T09:10:10;18.80;;;9.03;;
12445;SDS011;6287;50.984;7.022;2023-02-05T09:12:39;12.40;;;7.60;;
12445;SDS011;6287;50.984;7.022;2023-02-05T09:15:05;11.40;;;7.40;;
12445;SDS011;6287;50.984;7.022;2023-02-05T09:17:31;13.23;;;7.37;;
12445;SDS011;6287;50.984;7.022;2023-02-05T09:20:02;10.40;;;6.10;;
12445;SDS011;6287;50.984;7.022;2023-02-05T09:22:28;9.30;;;5.57;;
12445;SDS011;6287;50.984;7.022;2023-02-05T09:24:54;9.70;;;5.97;;
12445;SDS011;6287;50.984;7.022;2023-02-05T09:27:24;6.30;;;4.67;;
12445;SDS011;6287;50.984;7.022;2023-02-05T09:29:52;5.40;;;4.10;;
12445;SDS011;6287;50.984;7.022;2023-02-05T09:32:20;4.80;;;3.63;;
12445;SDS011;6287;50.984;7.022;2023-02-05T09:34:48;5.43;;;3.63;;
12445;SDS011;6287;50.984;7.022;2023-02-05T09:37:14;5.43;;;4.03;;
12445;SDS011;6287;50.984;7.022;2023-02-05T09:39:40;11.17;;;5.83;;
12445;SDS011;6287;50.984;7.022;2023-02-05T09:42:52;6.27;;;4.20;;
12445;SDS011;6287;50.984;7.022;2023-02-05T09:46:02;5.07;;;3.70;;
12445;SDS011;6287;50.984;7.022;2023-02-05T09:48:44;9.63;;;3.73;;
12445;SDS011;6287;50.984;7.022;2023-02-05T09:51:34;5.20;;;3.10;;
12445;SDS011;6287;50.984;7.022;2023-02-05T09:54:26;3.87;;;3.47;;
12445;SDS011;6287;50.984;7.022;2023-02-05T09:56:56;3.83;;;3.40;;
12445;SDS011;6287;50.984;7.022;2023-02-05T09:59:32;4.10;;;3.03;;
12445;SDS011;6287;50.984;7.022;2023-02-05T10:02:12;2.90;;;2.63;;
12445;SDS011;6287;50.984;7.022;2023-02-05T10:04:54;3.77;;;2.50;;
12445;SDS011;6287;50.984;7.022;2023-02-05T10:18:20;8.97;;;4.07;;
12445;SDS011;6287;50.984;7.022;2023-02-05T10:26:59;5.67;;;2.87;;
12445;SDS011;6287;50.984;7.022;2023-02-05T10:32:54;3.70;;;3.27;;
12445;SDS011;6287;50.984;7.022;2023-02-05T10:35:59;7.03;;;4.33;;
12445;SDS011;6287;50.984;7.022;2023-02-05T10:38:30;9.70;;;5.07;;
12445;SDS011;6287;50.984;7.022;2023-02-05T10:41:03;5.30;;;3.80;;
12445;SDS011;6287;50.984;7.022;2023-02-05T10:43:36;6.17;;;3.80;;
12445;SDS011;6287;50.984;7.022;2023-02-05T10:46:12;6.20;;;4.27;;
12445;SDS011;6287;50.984;7.022;2023-02-05T10:51:06;4.10;;;2.90;;
12445;SDS011;6287;50.984;7.022;2023-02-05T10:53:38;5.87;;;3.03;;
12445;SDS011;6287;50.984;7.022;2023-02-05T10:56:04;3.73;;;1.63;;
12445;SDS011;6287;50.984;7.022;2023-02-05T10:58:40;3.67;;;1.57;;
12445;SDS011;6287;50.984;7.022;2023-02-05T11:01:11;5.03;;;2.63;;
12445;SDS011;6287;50.984;7.022;2023-02-05T11:03:44;3.77;;;1.87;;
12445;SDS011;6287;50.984;7.022;2023-02-05T11:06:19;4.83;;;1.57;;
12445;SDS011;6287;50.984;7.022;2023-02-05T11:08:47;4.30;;;3.07;;
12445;SDS011;6287;50.984;7.022;2023-02-05T11:11:31;6.57;;;1.50;;
12445;SDS011;6287;50.984;7.022;2023-02-05T11:14:00;3.93;;;1.60;;
12445;SDS011;6287;50.984;7.022;2023-02-05T11:16:34;13.87;;;5.03;;
12445;SDS011;6287;50.984;7.022;2023-02-05T11:19:01;4.70;;;2.47;;
12445;SDS011;6287;50.984;7.022;2023-02-05T11:21:44;4.53;;;3.27;;
12445;SDS011;6287;50.984;7.022;2023-02-05T11:26:49;5.37;;;1.70;;
12445;SDS011;6287;50.984;7.022;2023-02-05T11:29:37;3.43;;;1.33;;
12445;SDS011;6287;50.984;7.022;2023-02-05T11:32:16;2.37;;;1.27;;
12445;SDS011;6287;50.984;7.022;2023-02-05T11:34:45;6.07;;;3.30;;
12445;SDS011;6287;50.984;7.022;2023-02-05T11:37:15;1.60;;;1.50;;
12445;SDS011;6287;50.984;7.022;2023-02-05T11:39:42;2.83;;;2.00;;
12445;SDS011;6287;50.984;7.022;2023-02-05T11:42:19;5.57;;;2.70;;
12445;SDS011;6287;50.984;7.022;2023-02-05T11:44:49;7.67;;;2.93;;
12445;SDS011;6287;50.984;7.022;2023-02-05T11:47:19;6.17;;;3.97;;
12445;SDS011;6287;50.984;7.022;2023-02-05T11:50:01;3.27;;;1.50;;
12445;SDS011;6287;50.984;7.022;2023-02-05T11:52:30;6.27;;;2.97;;
12445;SDS011;6287;50.984;7.022;2023-02-05T11:55:00;1.87;;;1.77;;
12445;SDS011;6287;50.984;7.022;2023-02-05T11:57:31;3.97;;;2.50;;
12445;SDS011;6287;50.984;7.022;2023-02-05T12:00:17;3.80;;;1.53;;
12445;SDS011;6287;50.984;7.022;2023-02-05T12:02:46;7.40;;;3.10;;
12445;SDS011;6287;50.984;7.022;2023-02-05T12:05:23;1.60;;;1.50;;
12445;SDS011;6287;50.984;7.022;2023-02-05T12:08:00;9.77;;;1.90;;
12445;SDS011;6287;50.984;7.022;2023-02-05T12:23:37;3.97;;;2.80;;
12445;SDS011;6287;50.984;7.022;2023-02-05T12:26:19;6.90;;;3.20;;
12445;SDS011;6287;50.984;7.022;2023-02-05T12:36:57;4.30;;;3.80;;
12445;SDS011;6287;50.984;7.022;2023-02-05T12:59:10;8.70;;;4.10;;
12445;SDS011;6287;50.984;7.022;2023-02-05T13:01:23;7.13;;;4.50;;
12445;SDS011;6287;50.984;7.022;2023-02-05T13:04:12;5.03;;;3.50;;
12445;SDS011;6287;50.984;7.022;2023-02-05T13:06:53;6.83;;;3.33;;
12445;SDS011;6287;50.984;7.022;2023-02-05T13:12:10;9.03;;;2.60;;
12445;SDS011;6287;50.984;7.022;2023-02-05T13:14:43;5.90;;;2.63;;
12445;SDS011;6287;50.984;7.022;2023-02-05T13:17:21;4.07;;;2.37;;
12445;SDS011;6287;50.984;7.022;2023-02-05T13:19:56;5.53;;;3.37;;
12445;SDS011;6287;50.984;7.022;2023-02-05T13:22:33;5.00;;;2.50;;
12445;SDS011;6287;50.984;7.022;2023-02-05T13:28:10;1.80;;;1.60;;
12445;SDS011;6287;50.984;7.022;2023-02-05T13:31:09;2.33;;;1.27;;
12445;SDS011;6287;50.984;7.022;2023-02-05T13:33:41;4.17;;;1.70;;
12445;SDS011;6287;50.984;7.022;2023-02-05T13:56:31;2.57;;;2.37;;
12445;SDS011;6287;50.984;7.022;2023-02-05T14:02:03;2.80;;;2.60;;
12445;SDS011;6287;50.984;7.022;2023-02-05T14:04:44;4.27;;;2.70;;
12445;SDS011;6287;50.984;7.022;2023-02-05T14:07:20;3.70;;;2.70;;
12445;SDS011;6287;50.984;7.022;2023-02-05T14:09:56;4.80;;;2.73;;
12445;SDS011;6287;50.984;7.022;2023-02-05T14:12:28;4.57;;;2.57;;
12445;SDS011;6287;50.984;7.022;2023-02-05T14:22:52;3.73;;;2.33;;
12445;SDS011;6287;50.984;7.022;2023-02-05T14:28:49;2.13;;;1.90;;
12445;SDS011;6287;50.984;7.022;2023-02-05T14:30:54;1.93;;;1.70;;
12445;SDS011;6287;50.984;7.022;2023-02-05T14:33:26;3.50;;;2.03;;
12445;SDS011;6287;50.984;7.022;2023-02-05T14:38:39;5.27;;;2.00;;
12445;SDS011;6287;50.984;7.022;2023-02-05T14:41:13;4.50;;;2.33;;
12445;SDS011;6287;50.984;7.022;2023-02-05T14:44:01;4.37;;;2.10;;
12445;SDS011;6287;50.984;7.022;2023-02-05T14:46:51;3.73;;;2.13;;
12445;SDS011;6287;50.984;7.022;2023-02-05T14:49:22;2.73;;;2.10;;
12445;SDS011;6287;50.984;7.022;2023-02-05T14:51:53;4.43;;;2.50;;
12445;SDS011;6287;50.984;7.022;2023-02-05T14:54:30;5.03;;;2.90;;
12445;SDS011;6287;50.984;7.022;2023-02-05T14:57:10;5.87;;;3.30;;
12445;SDS011;6287;50.984;7.022;2023-02-05T15:07:48;3.10;;;2.30;;
12445;SDS011;6287;50.984;7.022;2023-02-05T15:10:25;4.67;;;2.30;;
12445;SDS011;6287;50.984;7.022;2023-02-05T15:13:00;3.30;;;2.93;;
12445;SDS011;6287;50.984;7.022;2023-02-05T15:18:01;4.77;;;2.43;;
12445;SDS011;6287;50.984;7.022;2023-02-05T15:20:36;2.93;;;2.17;;
12445;SDS011;6287;50.984;7.022;2023-02-05T15:23:19;3.73;;;2.30;;
12445;SDS011;6287;50.984;7.022;2023-02-05T15:25:57;2.43;;;2.03;;
12445;SDS011;6287;50.984;7.022;2023-02-05T15:28:37;5.23;;;2.37;;
12445;SDS011;6287;50.984;7.022;2023-02-05T15:33:55;3.77;;;2.13;;
12445;SDS011;6287;50.984;7.022;2023-02-05T15:36:44;2.67;;;2.10;;
12445;SDS011;6287;50.984;7.022;2023-02-05T15:39:30;2.30;;;2.10;;
12445;SDS011;6287;50.984;7.022;2023-02-05T15:42:01;3.17;;;1.50;;
12445;SDS011;6287;50.984;7.022;2023-02-05T15:44:31;3.13;;;1.90;;
12445;SDS011;6287;50.984;7.022;2023-02-05T15:47:00;1.83;;;1.63;;
12445;SDS011;6287;50.984;7.022;2023-02-05T15:49:32;3.03;;;1.67;;
12445;SDS011;6287;50.984;7.022;2023-02-05T15:52:14;4.63;;;2.13;;
12445;SDS011;6287;50.984;7.022;2023-02-05T15:54:52;3.70;;;1.87;;
12445;SDS011;6287;50.984;7.022;2023-02-05T15:57:24;7.80;;;2.07;;
12445;SDS011;6287;50.984;7.022;2023-02-05T15:59:55;3.57;;;1.80;;
12445;SDS011;6287;50.984;7.022;2023-02-05T16:02:23;3.93;;;1.87;;
12445;SDS011;6287;50.984;7.022;2023-02-05T16:04:52;6.33;;;2.13;;
12445;SDS011;6287;50.984;7.022;2023-02-05T16:09:51;3.33;;;1.80;;
12445;SDS011;6287;50.984;7.022;2023-02-05T16:12:23;4.80;;;1.60;;
12445;SDS011;6287;50.984;7.022;2023-02-05T16:15:01;3.33;;;1.60;;
12445;SDS011;6287;50.984;7.022;2023-02-05T16:17:33;2.30;;;1.60;;
12445;SDS011;6287;50.984;7.022;2023-02-05T16:25:39;4.20;;;1.60;;
12445;SDS011;6287;50.984;7.022;2023-02-05T16:28:13;2.83;;;1.80;;
12445;SDS011;6287;50.984;7.022;2023-02-05T16:30:49;4.47;;;2.03;;
12445;SDS011;6287;50.984;7.022;2023-02-05T16:33:26;4.03;;;1.70;;
12445;SDS011;6287;50.984;7.022;2023-02-05T16:35:59;6.77;;;2.00;;
12445;SDS011;6287;50.984;7.022;2023-02-05T16:38:27;3.37;;;1.80;;
12445;SDS011;6287;50.984;7.022;2023-02-05T16:40:54;4.40;;;1.83;;
12445;SDS011;6287;50.984;7.022;2023-02-05T16:43:30;4.80;;;2.17;;
12445;SDS011;6287;50.984;7.022;2023-02-05T16:48:36;6.40;;;2.77;;
12445;SDS011;6287;50.984;7.022;2023-02-05T16:51:03;4.23;;;1.60;;
12445;SDS011;6287;50.984;7.022;2023-02-05T16:53:48;9.37;;;1.90;;
12445;SDS011;6287;50.984;7.022;2023-02-05T16:56:22;4.23;;;2.40;;
12445;SDS011;6287;50.984;7.022;2023-02-05T16:58:51;4.80;;;2.83;;
12445;SDS011;6287;50.984;7.022;2023-02-05T17:01:22;4.33;;;1.90;;
12445;SDS011;6287;50.984;7.022;2023-02-05T17:03:59;3.10;;;1.90;;
12445;SDS011;6287;50.984;7.022;2023-02-05T17:06:25;4.50;;;2.03;;
12445;SDS011;6287;50.984;7.022;2023-02-05T17:09:02;7.67;;;2.60;;
12445;SDS011;6287;50.984;7.022;2023-02-05T17:11:39;9.40;;;2.87;;
12445;SDS011;6287;50.984;7.022;2023-02-05T17:16:38;3.33;;;2.30;;
12445;SDS011;6287;50.984;7.022;2023-02-05T17:19:21;5.90;;;2.80;;
12445;SDS011;6287;50.984;7.022;2023-02-05T17:24:40;3.53;;;2.03;;
12445;SDS011;6287;50.984;7.022;2023-02-05T17:27:20;8.83;;;2.10;;
12445;SDS011;6287;50.984;7.022;2023-02-05T17:29:55;4.73;;;2.07;;
12445;SDS011;6287;50.984;7.022;2023-02-05T17:32:22;2.93;;;1.27;;
12445;SDS011;6287;50.984;7.022;2023-02-05T17:34:48;6.20;;;2.00;;
12445;SDS011;6287;50.984;7.022;2023-02-05T17:37:17;4.63;;;1.50;;
12445;SDS011;6287;50.984;7.022;2023-02-05T17:39:43;2.17;;;1.40;;
12445;SDS011;6287;50.984;7.022;2023-02-05T17:42:20;6.13;;;2.00;;
12445;SDS011;6287;50.984;7.022;2023-02-05T17:44:51;5.93;;;2.13;;
12445;SDS011;6287;50.984;7.022;2023-02-05T17:47:19;6.27;;;2.47;;
12445;SDS011;6287;50.984;7.022;2023-02-05T17:49:45;5.23;;;2.13;;
12445;SDS011;6287;50.984;7.022;2023-02-05T17:52:11;5.13;;;2.50;;
12445;SDS011;6287;50.984;7.022;2023-02-05T17:54:39;3.33;;;1.90;;
12445;SDS011;6287;50.984;7.022;2023-02-05T17:59:41;6.27;;;1.93;;
12445;SDS011;6287;50.984;7.022;2023-02-05T18:02:08;7.20;;;2.30;;
12445;SDS011;6287;50.984;7.022;2023-02-05T18:04:38;8.20;;;2.40;;
12445;SDS011;6287;50.984;7.022;2023-02-05T18:07:49;7.87;;;2.17;;
12445;SDS011;6287;50.984;7.022;2023-02-05T18:10:01;10.53;;;2.63;;
12445;SDS011;6287;50.984;7.022;2023-02-05T18:12:29;9.50;;;2.80;;
12445;SDS011;6287;50.984;7.022;2023-02-05T18:14:55;7.10;;;2.67;;
12445;SDS011;6287;50.984;7.022;2023-02-05T18:17:21;12.20;;;2.83;;